sensor_id;sensor_type;location;lat;lon;timestamp;temperature;humidity
49373;DHT22;44113;38.408;-122.974;2022-08-21T00:00:40;30.60;44.20
49373;DHT22;44113;38.408;-122.974;2022-08-21T00:03:09;30.60;44.50
49373;DHT22;44113;38.408;-122.974;2022-08-21T00:05:40;30.60;44.70
49373;DHT22;44113;38.408;-122.974;2022-08-21T00:08:07;30.60;44.70
49373;DHT22;44113;38.408;-122.974;2022-08-21T00:10:35;30.60;45.20
49373;DHT22;44113;38.408;-122.974;2022-08-21T00:13:03;30.60;44.50
49373;DHT22;44113;38.408;-122.974;2022-08-21T00:15:34;30.70;45.00
49373;DHT22;44113;38.408;-122.974;2022-08-21T00:18:01;30.70;44.50
49373;DHT22;44113;38.408;-122.974;2022-08-21T00:20:28;30.70;44.00
49373;DHT22;44113;38.408;-122.974;2022-08-21T00:22:55;30.70;44.70
49373;DHT22;44113;38.408;-122.974;2022-08-21T00:25:22;30.70;43.80
49373;DHT22;44113;38.408;-122.974;2022-08-21T00:27:48;30.70;43.70
49373;DHT22;44113;38.408;-122.974;2022-08-21T00:30:17;30.70;44.10
49373;DHT22;44113;38.408;-122.974;2022-08-21T00:32:44;30.70;43.70
49373;DHT22;44113;38.408;-122.974;2022-08-21T00:35:15;30.70;44.00
49373;DHT22;44113;38.408;-122.974;2022-08-21T00:37:43;30.70;44.30
49373;DHT22;44113;38.408;-122.974;2022-08-21T00:40:13;30.70;44.10
49373;DHT22;44113;38.408;-122.974;2022-08-21T00:42:40;30.70;44.10
49373;DHT22;44113;38.408;-122.974;2022-08-21T00:45:08;30.70;44.20
49373;DHT22;44113;38.408;-122.974;2022-08-21T00:47:35;30.70;44.40
49373;DHT22;44113;38.408;-122.974;2022-08-21T00:50:06;30.70;44.20
49373;DHT22;44113;38.408;-122.974;2022-08-21T00:52:34;30.70;44.20
49373;DHT22;44113;38.408;-122.974;2022-08-21T00:55:04;30.70;44.20
49373;DHT22;44113;38.408;-122.974;2022-08-21T00:57:43;30.70;44.40
49373;DHT22;44113;38.408;-122.974;2022-08-21T01:00:15;30.60;44.40
49373;DHT22;44113;38.408;-122.974;2022-08-21T01:02:44;30.70;44.30
49373;DHT22;44113;38.408;-122.974;2022-08-21T01:05:12;30.70;44.40
49373;DHT22;44113;38.408;-122.974;2022-08-21T01:07:39;30.70;44.30
49373;DHT22;44113;38.408;-122.974;2022-08-21T01:10:08;30.60;44.50
49373;DHT22;44113;38.408;-122.974;2022-08-21T01:12:35;30.60;44.70
49373;DHT22;44113;38.408;-122.974;2022-08-21T01:15:05;30.60;44.60
49373;DHT22;44113;38.408;-122.974;2022-08-21T01:17:33;30.50;44.40
49373;DHT22;44113;38.408;-122.974;2022-08-21T01:20:05;30.40;44.10
49373;DHT22;44113;38.408;-122.974;2022-08-21T01:22:32;30.40;44.40
49373;DHT22;44113;38.408;-122.974;2022-08-21T01:24:59;30.30;44.30
49373;DHT22;44113;38.408;-122.974;2022-08-21T01:27:26;30.20;44.40
49373;DHT22;44113;38.408;-122.974;2022-08-21T01:30:04;30.20;44.30
49373;DHT22;44113;38.408;-122.974;2022-08-21T01:32:33;30.10;44.20
49373;DHT22;44113;38.408;-122.974;2022-08-21T01:35:00;30.10;44.40
49373;DHT22;44113;38.408;-122.974;2022-08-21T01:37:27;30.00;44.10
49373;DHT22;44113;38.408;-122.974;2022-08-21T01:39:54;29.90;44.40
49373;DHT22;44113;38.408;-122.974;2022-08-21T01:42:20;29.90;44.20
49373;DHT22;44113;38.408;-122.974;2022-08-21T01:44:47;29.80;44.10
49373;DHT22;44113;38.408;-122.974;2022-08-21T01:47:15;29.70;44.20
49373;DHT22;44113;38.408;-122.974;2022-08-21T01:49:43;29.60;44.10
49373;DHT22;44113;38.408;-122.974;2022-08-21T01:52:10;29.50;44.10
49373;DHT22;44113;38.408;-122.974;2022-08-21T01:54:38;29.50;44.00
49373;DHT22;44113;38.408;-122.974;2022-08-21T01:57:05;29.30;44.20
49373;DHT22;44113;38.408;-122.974;2022-08-21T01:59:32;29.20;44.10
49373;DHT22;44113;38.408;-122.974;2022-08-21T02:01:59;29.10;44.40
49373;DHT22;44113;38.408;-122.974;2022-08-21T02:04:27;29.00;44.40
49373;DHT22;44113;38.408;-122.974;2022-08-21T02:06:54;28.90;44.50
49373;DHT22;44113;38.408;-122.974;2022-08-21T02:09:20;28.80;44.90
49373;DHT22;44113;38.408;-122.974;2022-08-21T02:11:48;28.70;44.90
49373;DHT22;44113;38.408;-122.974;2022-08-21T02:14:15;28.60;44.90
49373;DHT22;44113;38.408;-122.974;2022-08-21T02:16:44;28.60;45.10
49373;DHT22;44113;38.408;-122.974;2022-08-21T02:19:12;28.50;45.10
49373;DHT22;44113;38.408;-122.974;2022-08-21T02:21:39;28.40;45.10
49373;DHT22;44113;38.408;-122.974;2022-08-21T02:24:06;28.30;45.40
49373;DHT22;44113;38.408;-122.974;2022-08-21T02:26:33;28.20;45.50
49373;DHT22;44113;38.408;-122.974;2022-08-21T02:29:01;28.00;45.70
49373;DHT22;44113;38.408;-122.974;2022-08-21T02:31:27;28.00;46.00
49373;DHT22;44113;38.408;-122.974;2022-08-21T02:33:54;27.90;46.10
49373;DHT22;44113;38.408;-122.974;2022-08-21T02:36:21;27.80;46.20
49373;DHT22;44113;38.408;-122.974;2022-08-21T02:38:47;27.80;46.50
49373;DHT22;44113;38.408;-122.974;2022-08-21T02:41:18;27.70;46.80
49373;DHT22;44113;38.408;-122.974;2022-08-21T02:43:47;27.40;47.80
49373;DHT22;44113;38.408;-122.974;2022-08-21T02:46:15;27.10;48.40
49373;DHT22;44113;38.408;-122.974;2022-08-21T02:48:43;26.90;49.20
49373;DHT22;44113;38.408;-122.974;2022-08-21T02:51:16;26.70;49.60
49373;DHT22;44113;38.408;-122.974;2022-08-21T02:53:44;26.60;49.40
49373;DHT22;44113;38.408;-122.974;2022-08-21T02:56:14;26.30;50.80
49373;DHT22;44113;38.408;-122.974;2022-08-21T02:58:46;26.30;50.40
49373;DHT22;44113;38.408;-122.974;2022-08-21T03:01:13;26.10;50.50
49373;DHT22;44113;38.408;-122.974;2022-08-21T03:03:43;26.10;50.80
49373;DHT22;44113;38.408;-122.974;2022-08-21T03:06:12;26.10;50.90
49373;DHT22;44113;38.408;-122.974;2022-08-21T03:08:39;26.00;50.70
49373;DHT22;44113;38.408;-122.974;2022-08-21T03:11:06;26.00;50.90
49373;DHT22;44113;38.408;-122.974;2022-08-21T03:13:33;25.90;51.00
49373;DHT22;44113;38.408;-122.974;2022-08-21T03:16:00;25.80;51.00
49373;DHT22;44113;38.408;-122.974;2022-08-21T03:18:26;25.80;50.70
49373;DHT22;44113;38.408;-122.974;2022-08-21T03:20:54;25.70;50.90
49373;DHT22;44113;38.408;-122.974;2022-08-21T03:23:21;25.70;51.30
49373;DHT22;44113;38.408;-122.974;2022-08-21T03:25:48;25.50;51.50
49373;DHT22;44113;38.408;-122.974;2022-08-21T03:28:19;25.60;51.80
49373;DHT22;44113;38.408;-122.974;2022-08-21T03:30:48;25.50;51.80
49373;DHT22;44113;38.408;-122.974;2022-08-21T03:33:17;25.60;51.80
49373;DHT22;44113;38.408;-122.974;2022-08-21T03:35:47;25.50;51.60
49373;DHT22;44113;38.408;-122.974;2022-08-21T03:38:15;25.70;51.50
49373;DHT22;44113;38.408;-122.974;2022-08-21T03:40:43;25.60;51.50
49373;DHT22;44113;38.408;-122.974;2022-08-21T03:43:09;25.50;50.70
49373;DHT22;44113;38.408;-122.974;2022-08-21T03:45:38;25.60;50.80
49373;DHT22;44113;38.408;-122.974;2022-08-21T03:48:06;25.50;51.00
49373;DHT22;44113;38.408;-122.974;2022-08-21T03:50:35;25.40;51.30
49373;DHT22;44113;38.408;-122.974;2022-08-21T03:53:03;25.10;51.50
49373;DHT22;44113;38.408;-122.974;2022-08-21T03:55:30;25.20;51.50
49373;DHT22;44113;38.408;-122.974;2022-08-21T03:57:57;25.30;51.70
49373;DHT22;44113;38.408;-122.974;2022-08-21T04:00:24;25.40;51.20
49373;DHT22;44113;38.408;-122.974;2022-08-21T04:02:51;25.60;50.90
49373;DHT22;44113;38.408;-122.974;2022-08-21T04:05:20;25.70;50.60
49373;DHT22;44113;38.408;-122.974;2022-08-21T04:07:55;25.80;50.60
49373;DHT22;44113;38.408;-122.974;2022-08-21T04:10:22;25.90;50.50
49373;DHT22;44113;38.408;-122.974;2022-08-21T04:12:50;25.90;50.30
49373;DHT22;44113;38.408;-122.974;2022-08-21T04:15:18;25.90;50.30
49373;DHT22;44113;38.408;-122.974;2022-08-21T04:17:44;26.00;50.20
49373;DHT22;44113;38.408;-122.974;2022-08-21T04:20:11;25.90;50.20
49373;DHT22;44113;38.408;-122.974;2022-08-21T04:22:38;26.00;50.20
49373;DHT22;44113;38.408;-122.974;2022-08-21T04:25:05;26.00;50.00
49373;DHT22;44113;38.408;-122.974;2022-08-21T04:27:33;26.00;49.90
49373;DHT22;44113;38.408;-122.974;2022-08-21T04:30:01;26.10;49.90
49373;DHT22;44113;38.408;-122.974;2022-08-21T04:32:27;26.00;49.80
49373;DHT22;44113;38.408;-122.974;2022-08-21T04:35:02;26.00;49.70
49373;DHT22;44113;38.408;-122.974;2022-08-21T04:37:30;26.00;49.80
49373;DHT22;44113;38.408;-122.974;2022-08-21T04:39:57;25.90;49.70
49373;DHT22;44113;38.408;-122.974;2022-08-21T04:42:27;25.80;49.70
49373;DHT22;44113;38.408;-122.974;2022-08-21T04:44:55;25.80;49.60
49373;DHT22;44113;38.408;-122.974;2022-08-21T04:47:22;25.80;49.60
49373;DHT22;44113;38.408;-122.974;2022-08-21T04:49:50;25.80;49.50
49373;DHT22;44113;38.408;-122.974;2022-08-21T04:52:21;25.70;49.50
49373;DHT22;44113;38.408;-122.974;2022-08-21T04:54:49;25.70;49.50
49373;DHT22;44113;38.408;-122.974;2022-08-21T04:57:18;25.70;49.50
49373;DHT22;44113;38.408;-122.974;2022-08-21T04:59:48;25.60;49.30
49373;DHT22;44113;38.408;-122.974;2022-08-21T05:02:16;25.60;49.20
49373;DHT22;44113;38.408;-122.974;2022-08-21T05:04:50;25.60;49.10
49373;DHT22;44113;38.408;-122.974;2022-08-21T05:07:24;25.60;49.00
49373;DHT22;44113;38.408;-122.974;2022-08-21T05:09:54;25.60;49.00
49373;DHT22;44113;38.408;-122.974;2022-08-21T05:12:21;25.50;48.90
49373;DHT22;44113;38.408;-122.974;2022-08-21T05:14:48;25.50;49.00
49373;DHT22;44113;38.408;-122.974;2022-08-21T05:17:15;25.40;49.00
49373;DHT22;44113;38.408;-122.974;2022-08-21T05:19:41;25.40;49.00
49373;DHT22;44113;38.408;-122.974;2022-08-21T05:22:08;25.30;48.90
49373;DHT22;44113;38.408;-122.974;2022-08-21T05:24:35;25.20;48.90
49373;DHT22;44113;38.408;-122.974;2022-08-21T05:27:01;25.20;48.90
49373;DHT22;44113;38.408;-122.974;2022-08-21T05:29:29;25.10;48.90
49373;DHT22;44113;38.408;-122.974;2022-08-21T05:31:55;25.10;49.00
49373;DHT22;44113;38.408;-122.974;2022-08-21T05:34:23;25.00;48.90
49373;DHT22;44113;38.408;-122.974;2022-08-21T05:36:49;25.00;48.80
49373;DHT22;44113;38.408;-122.974;2022-08-21T05:39:16;25.00;48.80
49373;DHT22;44113;38.408;-122.974;2022-08-21T05:41:42;24.90;48.80
49373;DHT22;44113;38.408;-122.974;2022-08-21T05:44:09;24.90;48.70
49373;DHT22;44113;38.408;-122.974;2022-08-21T05:46:35;24.80;48.90
49373;DHT22;44113;38.408;-122.974;2022-08-21T05:49:02;24.80;49.00
49373;DHT22;44113;38.408;-122.974;2022-08-21T05:51:29;24.50;49.20
49373;DHT22;44113;38.408;-122.974;2022-08-21T05:53:55;24.30;49.60
49373;DHT22;44113;38.408;-122.974;2022-08-21T05:56:21;24.10;50.10
49373;DHT22;44113;38.408;-122.974;2022-08-21T05:58:48;23.90;50.40
49373;DHT22;44113;38.408;-122.974;2022-08-21T06:01:14;23.70;51.00
49373;DHT22;44113;38.408;-122.974;2022-08-21T06:03:41;23.60;51.30
49373;DHT22;44113;38.408;-122.974;2022-08-21T06:06:09;23.60;51.40
49373;DHT22;44113;38.408;-122.974;2022-08-21T06:08:35;23.50;51.60
49373;DHT22;44113;38.408;-122.974;2022-08-21T06:11:03;23.40;51.90
49373;DHT22;44113;38.408;-122.974;2022-08-21T06:13:30;23.20;52.40
49373;DHT22;44113;38.408;-122.974;2022-08-21T06:16:12;23.10;52.80
49373;DHT22;44113;38.408;-122.974;2022-08-21T06:18:40;23.20;52.70
49373;DHT22;44113;38.408;-122.974;2022-08-21T06:21:07;23.40;52.20
49373;DHT22;44113;38.408;-122.974;2022-08-21T06:23:34;23.40;51.80
49373;DHT22;44113;38.408;-122.974;2022-08-21T06:26:02;23.50;51.70
49373;DHT22;44113;38.408;-122.974;2022-08-21T06:28:31;23.60;51.70
49373;DHT22;44113;38.408;-122.974;2022-08-21T06:30:58;23.60;51.60
49373;DHT22;44113;38.408;-122.974;2022-08-21T06:33:25;23.60;51.70
49373;DHT22;44113;38.408;-122.974;2022-08-21T06:35:52;23.60;51.70
49373;DHT22;44113;38.408;-122.974;2022-08-21T06:38:19;23.50;51.70
49373;DHT22;44113;38.408;-122.974;2022-08-21T06:40:46;23.50;51.80
49373;DHT22;44113;38.408;-122.974;2022-08-21T06:43:15;23.60;51.70
49373;DHT22;44113;38.408;-122.974;2022-08-21T06:45:43;23.60;51.60
49373;DHT22;44113;38.408;-122.974;2022-08-21T06:48:11;23.60;51.60
49373;DHT22;44113;38.408;-122.974;2022-08-21T06:50:37;23.60;51.50
49373;DHT22;44113;38.408;-122.974;2022-08-21T06:53:11;23.60;51.50
49373;DHT22;44113;38.408;-122.974;2022-08-21T06:55:38;23.60;51.50
49373;DHT22;44113;38.408;-122.974;2022-08-21T06:58:06;23.60;51.60
49373;DHT22;44113;38.408;-122.974;2022-08-21T07:00:33;23.50;51.80
49373;DHT22;44113;38.408;-122.974;2022-08-21T07:03:02;23.60;51.80
49373;DHT22;44113;38.408;-122.974;2022-08-21T07:05:31;23.50;51.70
49373;DHT22;44113;38.408;-122.974;2022-08-21T07:07:58;23.50;51.80
49373;DHT22;44113;38.408;-122.974;2022-08-21T07:10:26;23.50;51.80
49373;DHT22;44113;38.408;-122.974;2022-08-21T07:12:53;23.60;51.90
49373;DHT22;44113;38.408;-122.974;2022-08-21T07:15:20;23.60;51.90
49373;DHT22;44113;38.408;-122.974;2022-08-21T07:17:48;23.50;51.90
49373;DHT22;44113;38.408;-122.974;2022-08-21T07:20:16;23.50;51.90
49373;DHT22;44113;38.408;-122.974;2022-08-21T07:22:44;23.50;52.00
49373;DHT22;44113;38.408;-122.974;2022-08-21T07:25:10;23.50;52.00
49373;DHT22;44113;38.408;-122.974;2022-08-21T07:27:37;23.40;52.10
49373;DHT22;44113;38.408;-122.974;2022-08-21T07:30:05;23.40;52.70
49373;DHT22;44113;38.408;-122.974;2022-08-21T07:32:33;23.30;52.80
49373;DHT22;44113;38.408;-122.974;2022-08-21T07:34:59;23.20;52.80
49373;DHT22;44113;38.408;-122.974;2022-08-21T07:37:26;23.20;52.90
49373;DHT22;44113;38.408;-122.974;2022-08-21T07:39:53;23.20;53.10
49373;DHT22;44113;38.408;-122.974;2022-08-21T07:42:19;23.20;53.00
49373;DHT22;44113;38.408;-122.974;2022-08-21T07:44:46;23.20;53.00
49373;DHT22;44113;38.408;-122.974;2022-08-21T07:47:12;23.20;53.20
49373;DHT22;44113;38.408;-122.974;2022-08-21T07:49:39;23.10;53.10
49373;DHT22;44113;38.408;-122.974;2022-08-21T07:52:06;23.10;53.20
49373;DHT22;44113;38.408;-122.974;2022-08-21T07:54:33;23.20;53.30
49373;DHT22;44113;38.408;-122.974;2022-08-21T07:57:00;23.10;53.30
49373;DHT22;44113;38.408;-122.974;2022-08-21T07:59:27;23.10;53.50
49373;DHT22;44113;38.408;-122.974;2022-08-21T08:01:53;23.00;53.90
49373;DHT22;44113;38.408;-122.974;2022-08-21T08:04:19;23.00;53.80
49373;DHT22;44113;38.408;-122.974;2022-08-21T08:06:46;22.90;54.00
49373;DHT22;44113;38.408;-122.974;2022-08-21T08:09:12;22.80;54.20
49373;DHT22;44113;38.408;-122.974;2022-08-21T08:11:41;22.80;54.50
49373;DHT22;44113;38.408;-122.974;2022-08-21T08:14:09;22.80;54.40
49373;DHT22;44113;38.408;-122.974;2022-08-21T08:16:36;22.70;54.50
49373;DHT22;44113;38.408;-122.974;2022-08-21T08:19:03;22.70;54.50
49373;DHT22;44113;38.408;-122.974;2022-08-21T08:21:29;22.60;54.80
49373;DHT22;44113;38.408;-122.974;2022-08-21T08:23:58;22.60;54.90
49373;DHT22;44113;38.408;-122.974;2022-08-21T08:26:24;22.60;55.00
49373;DHT22;44113;38.408;-122.974;2022-08-21T08:28:51;22.50;55.20
49373;DHT22;44113;38.408;-122.974;2022-08-21T08:31:19;22.50;55.40
49373;DHT22;44113;38.408;-122.974;2022-08-21T08:33:46;22.40;55.90
49373;DHT22;44113;38.408;-122.974;2022-08-21T08:36:14;22.40;55.60
49373;DHT22;44113;38.408;-122.974;2022-08-21T08:38:41;22.30;55.70
49373;DHT22;44113;38.408;-122.974;2022-08-21T08:41:14;22.30;55.70
49373;DHT22;44113;38.408;-122.974;2022-08-21T08:43:54;22.30;55.80
49373;DHT22;44113;38.408;-122.974;2022-08-21T08:46:40;22.30;55.80
49373;DHT22;44113;38.408;-122.974;2022-08-21T08:49:30;22.30;56.00
49373;DHT22;44113;38.408;-122.974;2022-08-21T08:52:06;22.30;56.00
49373;DHT22;44113;38.408;-122.974;2022-08-21T08:54:42;22.20;56.00
49373;DHT22;44113;38.408;-122.974;2022-08-21T08:57:19;22.30;56.20
49373;DHT22;44113;38.408;-122.974;2022-08-21T08:59:56;22.30;56.30
49373;DHT22;44113;38.408;-122.974;2022-08-21T09:02:24;22.20;56.20
49373;DHT22;44113;38.408;-122.974;2022-08-21T09:04:54;22.20;56.40
49373;DHT22;44113;38.408;-122.974;2022-08-21T09:10:13;22.20;56.50
49373;DHT22;44113;38.408;-122.974;2022-08-21T09:13:19;22.10;56.60
49373;DHT22;44113;38.408;-122.974;2022-08-21T09:29:34;21.90;57.60
49373;DHT22;44113;38.408;-122.974;2022-08-21T09:32:09;21.70;58.10
49373;DHT22;44113;38.408;-122.974;2022-08-21T09:34:37;21.60;58.10
49373;DHT22;44113;38.408;-122.974;2022-08-21T09:37:04;21.50;58.40
49373;DHT22;44113;38.408;-122.974;2022-08-21T09:39:37;21.50;58.60
49373;DHT22;44113;38.408;-122.974;2022-08-21T09:42:07;21.50;58.70
49373;DHT22;44113;38.408;-122.974;2022-08-21T09:44:37;21.50;58.90
49373;DHT22;44113;38.408;-122.974;2022-08-21T09:47:07;21.40;58.90
49373;DHT22;44113;38.408;-122.974;2022-08-21T09:49:37;21.40;59.00
49373;DHT22;44113;38.408;-122.974;2022-08-21T09:52:12;21.40;59.10
49373;DHT22;44113;38.408;-122.974;2022-08-21T09:54:45;21.50;59.40
49373;DHT22;44113;38.408;-122.974;2022-08-21T09:57:23;21.40;59.40
49373;DHT22;44113;38.408;-122.974;2022-08-21T10:00:20;21.30;59.50
49373;DHT22;44113;38.408;-122.974;2022-08-21T10:02:50;21.30;60.10
49373;DHT22;44113;38.408;-122.974;2022-08-21T10:05:21;21.30;59.70
49373;DHT22;44113;38.408;-122.974;2022-08-21T10:07:50;21.30;59.70
49373;DHT22;44113;38.408;-122.974;2022-08-21T10:10:32;21.20;59.80
49373;DHT22;44113;38.408;-122.974;2022-08-21T10:13:21;21.20;59.90
49373;DHT22;44113;38.408;-122.974;2022-08-21T10:21:42;21.10;60.50
49373;DHT22;44113;38.408;-122.974;2022-08-21T10:27:14;21.10;60.50
49373;DHT22;44113;38.408;-122.974;2022-08-21T10:29:47;21.10;60.50
49373;DHT22;44113;38.408;-122.974;2022-08-21T10:35:29;21.00;60.60
49373;DHT22;44113;38.408;-122.974;2022-08-21T10:40:37;21.00;60.80
49373;DHT22;44113;38.408;-122.974;2022-08-21T10:56:47;20.90;61.00
49373;DHT22;44113;38.408;-122.974;2022-08-21T10:59:36;20.90;61.00
49373;DHT22;44113;38.408;-122.974;2022-08-21T11:04:39;20.90;61.10
49373;DHT22;44113;38.408;-122.974;2022-08-21T11:07:36;20.90;61.10
49373;DHT22;44113;38.408;-122.974;2022-08-21T11:10:17;20.80;61.30
49373;DHT22;44113;38.408;-122.974;2022-08-21T11:12:46;20.80;61.50
49373;DHT22;44113;38.408;-122.974;2022-08-21T11:15:38;20.80;61.50
49373;DHT22;44113;38.408;-122.974;2022-08-21T11:18:32;20.70;61.50
49373;DHT22;44113;38.408;-122.974;2022-08-21T11:26:47;20.60;61.90
49373;DHT22;44113;38.408;-122.974;2022-08-21T11:38:16;20.70;62.00
49373;DHT22;44113;38.408;-122.974;2022-08-21T11:45:53;20.60;62.30
49373;DHT22;44113;38.408;-122.974;2022-08-21T11:51:11;20.50;62.50
49373;DHT22;44113;38.408;-122.974;2022-08-21T11:53:48;20.50;62.40
49373;DHT22;44113;38.408;-122.974;2022-08-21T11:56:55;20.50;62.50
49373;DHT22;44113;38.408;-122.974;2022-08-21T11:59:37;20.50;62.60
49373;DHT22;44113;38.408;-122.974;2022-08-21T12:02:20;20.50;62.70
49373;DHT22;44113;38.408;-122.974;2022-08-21T12:04:56;20.50;62.60
49373;DHT22;44113;38.408;-122.974;2022-08-21T12:09:58;20.50;62.80
49373;DHT22;44113;38.408;-122.974;2022-08-21T12:12:32;20.50;62.70
49373;DHT22;44113;38.408;-122.974;2022-08-21T12:17:51;20.50;62.80
49373;DHT22;44113;38.408;-122.974;2022-08-21T12:20:36;20.50;62.70
49373;DHT22;44113;38.408;-122.974;2022-08-21T12:28:22;20.50;62.80
49373;DHT22;44113;38.408;-122.974;2022-08-21T12:30:51;20.50;62.80
49373;DHT22;44113;38.408;-122.974;2022-08-21T12:33:37;20.40;62.80
49373;DHT22;44113;38.408;-122.974;2022-08-21T12:36:14;20.50;62.80
49373;DHT22;44113;38.408;-122.974;2022-08-21T12:39:04;20.50;62.90
49373;DHT22;44113;38.408;-122.974;2022-08-21T12:41:53;20.50;62.90
49373;DHT22;44113;38.408;-122.974;2022-08-21T12:44:30;20.50;62.90
49373;DHT22;44113;38.408;-122.974;2022-08-21T12:47:15;20.50;62.90
49373;DHT22;44113;38.408;-122.974;2022-08-21T12:55:43;20.40;62.80
49373;DHT22;44113;38.408;-122.974;2022-08-21T12:58:35;20.40;62.90
49373;DHT22;44113;38.408;-122.974;2022-08-21T13:01:06;20.40;62.90
49373;DHT22;44113;38.408;-122.974;2022-08-21T13:03:38;20.40;62.80
49373;DHT22;44113;38.408;-122.974;2022-08-21T13:06:06;20.40;62.90
49373;DHT22;44113;38.408;-122.974;2022-08-21T13:08:35;20.40;62.90
49373;DHT22;44113;38.408;-122.974;2022-08-21T13:11:05;20.40;62.80
49373;DHT22;44113;38.408;-122.974;2022-08-21T13:13:33;20.40;63.00
49373;DHT22;44113;38.408;-122.974;2022-08-21T13:16:06;20.40;62.90
49373;DHT22;44113;38.408;-122.974;2022-08-21T13:18:36;20.40;62.90
49373;DHT22;44113;38.408;-122.974;2022-08-21T13:21:11;20.40;62.90
49373;DHT22;44113;38.408;-122.974;2022-08-21T13:23:39;20.40;63.00
49373;DHT22;44113;38.408;-122.974;2022-08-21T13:26:18;20.40;62.80
49373;DHT22;44113;38.408;-122.974;2022-08-21T13:28:46;20.40;62.90
49373;DHT22;44113;38.408;-122.974;2022-08-21T13:31:24;20.30;62.90
49373;DHT22;44113;38.408;-122.974;2022-08-21T13:33:54;20.30;62.90
49373;DHT22;44113;38.408;-122.974;2022-08-21T13:36:26;20.30;63.00
49373;DHT22;44113;38.408;-122.974;2022-08-21T13:38:56;20.30;62.70
49373;DHT22;44113;38.408;-122.974;2022-08-21T13:41:31;20.30;63.10
49373;DHT22;44113;38.408;-122.974;2022-08-21T13:44:02;20.30;63.20
49373;DHT22;44113;38.408;-122.974;2022-08-21T13:46:36;20.30;63.10
49373;DHT22;44113;38.408;-122.974;2022-08-21T13:49:05;20.30;63.20
49373;DHT22;44113;38.408;-122.974;2022-08-21T13:51:33;20.30;63.20
49373;DHT22;44113;38.408;-122.974;2022-08-21T13:54:01;20.30;63.00
49373;DHT22;44113;38.408;-122.974;2022-08-21T13:56:30;20.30;63.00
49373;DHT22;44113;38.408;-122.974;2022-08-21T13:58:59;20.30;63.00
49373;DHT22;44113;38.408;-122.974;2022-08-21T14:04:37;20.30;62.90
49373;DHT22;44113;38.408;-122.974;2022-08-21T14:07:16;20.20;63.10
49373;DHT22;44113;38.408;-122.974;2022-08-21T14:09:44;20.20;63.80
49373;DHT22;44113;38.408;-122.974;2022-08-21T14:12:18;20.20;63.80
49373;DHT22;44113;38.408;-122.974;2022-08-21T14:14:45;20.20;63.70
49373;DHT22;44113;38.408;-122.974;2022-08-21T14:17:31;20.30;63.70
49373;DHT22;44113;38.408;-122.974;2022-08-21T14:19:58;20.30;63.60
49373;DHT22;44113;38.408;-122.974;2022-08-21T14:22:31;20.20;63.40
49373;DHT22;44113;38.408;-122.974;2022-08-21T14:25:05;20.30;63.40
49373;DHT22;44113;38.408;-122.974;2022-08-21T14:27:37;20.30;63.30
49373;DHT22;44113;38.408;-122.974;2022-08-21T14:32:40;20.30;63.50
49373;DHT22;44113;38.408;-122.974;2022-08-21T14:35:07;20.30;63.60
49373;DHT22;44113;38.408;-122.974;2022-08-21T14:37:34;20.20;63.50
49373;DHT22;44113;38.408;-122.974;2022-08-21T14:40:01;20.30;63.50
49373;DHT22;44113;38.408;-122.974;2022-08-21T14:42:28;20.20;63.40
49373;DHT22;44113;38.408;-122.974;2022-08-21T14:44:59;20.30;63.40
49373;DHT22;44113;38.408;-122.974;2022-08-21T14:47:26;20.30;63.50
49373;DHT22;44113;38.408;-122.974;2022-08-21T14:49:54;20.30;63.50
49373;DHT22;44113;38.408;-122.974;2022-08-21T14:52:21;20.30;63.50
49373;DHT22;44113;38.408;-122.974;2022-08-21T14:54:48;20.30;63.40
49373;DHT22;44113;38.408;-122.974;2022-08-21T14:57:15;20.30;63.50
49373;DHT22;44113;38.408;-122.974;2022-08-21T14:59:41;20.30;63.40
49373;DHT22;44113;38.408;-122.974;2022-08-21T15:02:09;20.30;63.60
49373;DHT22;44113;38.408;-122.974;2022-08-21T15:04:37;20.30;63.50
49373;DHT22;44113;38.408;-122.974;2022-08-21T15:07:04;20.20;63.60
49373;DHT22;44113;38.408;-122.974;2022-08-21T15:09:31;20.20;63.50
49373;DHT22;44113;38.408;-122.974;2022-08-21T15:11:59;20.20;63.50
49373;DHT22;44113;38.408;-122.974;2022-08-21T15:14:28;20.20;63.50
49373;DHT22;44113;38.408;-122.974;2022-08-21T15:16:56;20.20;63.50
49373;DHT22;44113;38.408;-122.974;2022-08-21T15:19:23;20.20;63.60
49373;DHT22;44113;38.408;-122.974;2022-08-21T15:21:50;20.20;63.60
49373;DHT22;44113;38.408;-122.974;2022-08-21T15:24:16;20.20;63.60
49373;DHT22;44113;38.408;-122.974;2022-08-21T15:26:43;20.20;63.60
49373;DHT22;44113;38.408;-122.974;2022-08-21T15:29:10;20.20;63.80
49373;DHT22;44113;38.408;-122.974;2022-08-21T15:31:37;20.20;63.90
49373;DHT22;44113;38.408;-122.974;2022-08-21T15:34:15;20.10;63.80
49373;DHT22;44113;38.408;-122.974;2022-08-21T15:36:42;20.20;63.90
49373;DHT22;44113;38.408;-122.974;2022-08-21T15:39:08;20.20;64.00
49373;DHT22;44113;38.408;-122.974;2022-08-21T15:41:36;20.10;63.90
49373;DHT22;44113;38.408;-122.974;2022-08-21T15:44:02;20.10;63.90
49373;DHT22;44113;38.408;-122.974;2022-08-21T15:46:30;20.10;64.00
49373;DHT22;44113;38.408;-122.974;2022-08-21T15:48:57;20.10;64.10
49373;DHT22;44113;38.408;-122.974;2022-08-21T15:51:23;20.10;64.20
49373;DHT22;44113;38.408;-122.974;2022-08-21T15:53:50;20.10;64.40
49373;DHT22;44113;38.408;-122.974;2022-08-21T15:56:26;20.10;64.60
49373;DHT22;44113;38.408;-122.974;2022-08-21T15:58:59;20.10;65.60
49373;DHT22;44113;38.408;-122.974;2022-08-21T16:01:28;20.20;65.40
49373;DHT22;44113;38.408;-122.974;2022-08-21T16:03:55;20.20;64.70
49373;DHT22;44113;38.408;-122.974;2022-08-21T16:06:22;20.30;64.80
49373;DHT22;44113;38.408;-122.974;2022-08-21T16:08:49;20.20;64.40
49373;DHT22;44113;38.408;-122.974;2022-08-21T16:11:16;20.20;64.40
49373;DHT22;44113;38.408;-122.974;2022-08-21T16:13:44;20.20;64.30
49373;DHT22;44113;38.408;-122.974;2022-08-21T16:16:15;20.20;64.40
49373;DHT22;44113;38.408;-122.974;2022-08-21T16:18:42;20.20;64.40
49373;DHT22;44113;38.408;-122.974;2022-08-21T16:21:09;20.20;64.50
49373;DHT22;44113;38.408;-122.974;2022-08-21T16:23:35;20.10;64.40
49373;DHT22;44113;38.408;-122.974;2022-08-21T16:26:05;20.10;64.70
49373;DHT22;44113;38.408;-122.974;2022-08-21T16:28:34;20.10;64.80
49373;DHT22;44113;38.408;-122.974;2022-08-21T16:31:03;20.10;64.70
49373;DHT22;44113;38.408;-122.974;2022-08-21T16:35:59;20.10;64.80
49373;DHT22;44113;38.408;-122.974;2022-08-21T16:38:28;20.10;64.70